sensor_id;sensor_type;location;lat;lon;timestamp;temperature;humidity
6954;DHT22;3516;47.980;8.808;2023-04-01T05:10:38;4.50;99.90
6954;DHT22;3516;47.980;8.808;2023-04-01T05:13:04;4.50;99.90
6954;DHT22;3516;47.980;8.808;2023-04-01T05:15:31;4.50;99.90
6954;DHT22;3516;47.980;8.808;2023-04-01T05:17:58;4.50;99.90
6954;DHT22;3516;47.980;8.808;2023-04-01T05:20:25;4.50;99.90
6954;DHT22;3516;47.980;8.808;2023-04-01T05:22:55;4.60;99.90
6954;DHT22;3516;47.980;8.808;2023-04-01T05:25:22;4.60;99.90
6954;DHT22;3516;47.980;8.808;2023-04-01T05:27:50;4.60;99.90
6954;DHT22;3516;47.980;8.808;2023-04-01T05:30:17;4.60;99.90
6954;DHT22;3516;47.980;8.808;2023-04-01T05:32:44;4.70;99.90
6954;DHT22;3516;47.980;8.808;2023-04-01T05:35:11;4.70;99.90
6954;DHT22;3516;47.980;8.808;2023-04-01T05:37:38;4.80;99.90
6954;DHT22;3516;47.980;8.808;2023-04-01T05:40:06;4.80;99.90
6954;DHT22;3516;47.980;8.808;2023-04-01T05:42:33;4.70;99.90
6954;DHT22;3516;47.980;8.808;2023-04-01T05:45:01;4.80;99.90
6954;DHT22;3516;47.980;8.808;2023-04-01T05:47:28;4.90;99.90
6954;DHT22;3516;47.980;8.808;2023-04-01T05:49:54;5.00;99.90
6954;DHT22;3516;47.980;8.808;2023-04-01T05:52:21;5.00;99.90
6954;DHT22;3516;47.980;8.808;2023-04-01T05:54:48;5.00;99.90
6954;DHT22;3516;47.980;8.808;2023-04-01T05:57:15;5.10;99.90
6954;DHT22;3516;47.980;8.808;2023-04-01T05:59:41;5.10;99.90
6954;DHT22;3516;47.980;8.808;2023-04-01T06:02:10;5.10;99.90
6954;DHT22;3516;47.980;8.808;2023-04-01T06:04:38;5.30;99.90
6954;DHT22;3516;47.980;8.808;2023-04-01T06:07:13;5.50;99.90
6954;DHT22;3516;47.980;8.808;2023-04-01T06:09:41;5.70;99.90
6954;DHT22;3516;47.980;8.808;2023-04-01T06:12:24;5.90;99.90
6954;DHT22;3516;47.980;8.808;2023-04-01T06:15:04;6.10;99.90
6954;DHT22;3516;47.980;8.808;2023-04-01T06:17:47;6.30;99.90
6954;DHT22;3516;47.980;8.808;2023-04-01T06:20:23;6.30;99.90
6954;DHT22;3516;47.980;8.808;2023-04-01T06:23:02;6.60;99.90
6954;DHT22;3516;47.980;8.808;2023-04-01T06:25:43;6.80;99.90
6954;DHT22;3516;47.980;8.808;2023-04-01T06:31:44;6.30;99.90
6954;DHT22;3516;47.980;8.808;2023-04-01T06:34:30;6.10;99.90
6954;DHT22;3516;47.980;8.808;2023-04-01T06:37:15;6.20;99.90
6954;DHT22;3516;47.980;8.808;2023-04-01T06:43:01;6.00;99.90
6954;DHT22;3516;47.980;8.808;2023-04-01T06:45:37;6.20;99.90
6954;DHT22;3516;47.980;8.808;2023-04-01T06:48:19;6.30;99.90
6954;DHT22;3516;47.980;8.808;2023-04-01T06:50:56;6.20;99.90
6954;DHT22;3516;47.980;8.808;2023-04-01T06:53:34;6.10;99.90
6954;DHT22;3516;47.980;8.808;2023-04-01T06:56:04;5.90;99.90
6954;DHT22;3516;47.980;8.808;2023-04-01T06:58:36;5.90;99.90
6954;DHT22;3516;47.980;8.808;2023-04-01T07:01:07;6.00;99.90
6954;DHT22;3516;47.980;8.808;2023-04-01T07:03:38;6.00;99.90
6954;DHT22;3516;47.980;8.808;2023-04-01T07:06:10;6.00;99.90
6954;DHT22;3516;47.980;8.808;2023-04-01T07:08:41;5.80;99.90
6954;DHT22;3516;47.980;8.808;2023-04-01T07:11:11;5.80;99.90
6954;DHT22;3516;47.980;8.808;2023-04-01T07:13:45;5.90;99.90
6954;DHT22;3516;47.980;8.808;2023-04-01T07:16:18;6.00;99.90
6954;DHT22;3516;47.980;8.808;2023-04-01T07:18:49;6.00;99.90
6954;DHT22;3516;47.980;8.808;2023-04-01T07:21:29;6.10;99.90
6954;DHT22;3516;47.980;8.808;2023-04-01T07:24:01;6.10;99.90
6954;DHT22;3516;47.980;8.808;2023-04-01T07:26:30;6.30;99.90
6954;DHT22;3516;47.980;8.808;2023-04-01T07:28:57;6.20;99.90
6954;DHT22;3516;47.980;8.808;2023-04-01T07:31:38;6.20;99.90
6954;DHT22;3516;47.980;8.808;2023-04-01T07:34:12;6.20;99.90
6954;DHT22;3516;47.980;8.808;2023-04-01T07:36:46;6.20;99.90
6954;DHT22;3516;47.980;8.808;2023-04-01T07:39:25;6.20;99.90
6954;DHT22;3516;47.980;8.808;2023-04-01T07:41:59;6.10;99.90
6954;DHT22;3516;47.980;8.808;2023-04-01T07:44:34;6.10;99.90
6954;DHT22;3516;47.980;8.808;2023-04-01T07:47:17;6.00;99.90
6954;DHT22;3516;47.980;8.808;2023-04-01T07:49:51;6.00;99.90
6954;DHT22;3516;47.980;8.808;2023-04-01T07:52:27;6.00;99.90
6954;DHT22;3516;47.980;8.808;2023-04-01T07:55:01;6.00;99.90
6954;DHT22;3516;47.980;8.808;2023-04-01T07:57:33;6.00;99.90
6954;DHT22;3516;47.980;8.808;2023-04-01T08:00:07;5.80;99.90
6954;DHT22;3516;47.980;8.808;2023-04-01T08:02:48;5.70;99.90
6954;DHT22;3516;47.980;8.808;2023-04-01T08:05:23;5.60;99.90
6954;DHT22;3516;47.980;8.808;2023-04-01T08:07:58;5.50;99.90
6954;DHT22;3516;47.980;8.808;2023-04-01T08:10:32;5.40;99.90
6954;DHT22;3516;47.980;8.808;2023-04-01T08:13:08;5.30;99.90
6954;DHT22;3516;47.980;8.808;2023-04-01T08:15:42;5.20;99.90
6954;DHT22;3516;47.980;8.808;2023-04-01T08:18:18;5.40;99.90
6954;DHT22;3516;47.980;8.808;2023-04-01T08:20:51;5.40;99.90
6954;DHT22;3516;47.980;8.808;2023-04-01T08:23:26;5.40;99.90
6954;DHT22;3516;47.980;8.808;2023-04-01T08:25:56;5.40;99.90
6954;DHT22;3516;47.980;8.808;2023-04-01T08:28:28;5.40;99.90
6954;DHT22;3516;47.980;8.808;2023-04-01T08:41:07;5.30;99.90
6954;DHT22;3516;47.980;8.808;2023-04-01T08:43:59;5.50;99.90
6954;DHT22;3516;47.980;8.808;2023-04-01T08:46:46;5.60;99.90
6954;DHT22;3516;47.980;8.808;2023-04-01T08:49:37;5.60;99.90
6954;DHT22;3516;47.980;8.808;2023-04-01T08:52:35;5.60;99.90
6954;DHT22;3516;47.980;8.808;2023-04-01T08:58:17;5.60;99.90
6954;DHT22;3516;47.980;8.808;2023-04-01T09:00:50;5.70;99.90
6954;DHT22;3516;47.980;8.808;2023-04-01T09:03:33;5.80;99.90
6954;DHT22;3516;47.980;8.808;2023-04-01T09:06:23;5.80;99.90
6954;DHT22;3516;47.980;8.808;2023-04-01T09:09:04;5.80;99.90
6954;DHT22;3516;47.980;8.808;2023-04-01T09:11:43;5.70;99.90
6954;DHT22;3516;47.980;8.808;2023-04-01T09:14:31;5.90;99.90
6954;DHT22;3516;47.980;8.808;2023-04-01T09:20:17;5.80;99.90
6954;DHT22;3516;47.980;8.808;2023-04-01T09:22:55;5.80;99.90
6954;DHT22;3516;47.980;8.808;2023-04-01T09:25:38;5.80;99.90
6954;DHT22;3516;47.980;8.808;2023-04-01T09:28:14;5.70;99.90
6954;DHT22;3516;47.980;8.808;2023-04-01T09:31:16;5.70;99.90
6954;DHT22;3516;47.980;8.808;2023-04-01T09:34:17;5.70;99.90
6954;DHT22;3516;47.980;8.808;2023-04-01T09:36:57;5.80;99.90
6954;DHT22;3516;47.980;8.808;2023-04-01T09:39:34;5.90;99.90
6954;DHT22;3516;47.980;8.808;2023-04-01T09:42:35;5.90;99.90
6954;DHT22;3516;47.980;8.808;2023-04-01T09:45:17;6.00;99.90
6954;DHT22;3516;47.980;8.808;2023-04-01T09:47:59;6.30;99.90
6954;DHT22;3516;47.980;8.808;2023-04-01T09:50:34;6.40;99.90
6954;DHT22;3516;47.980;8.808;2023-04-01T09:53:14;6.40;99.90
6954;DHT22;3516;47.980;8.808;2023-04-01T09:56:14;6.40;99.90
6954;DHT22;3516;47.980;8.808;2023-04-01T09:59:15;6.40;99.90
6954;DHT22;3516;47.980;8.808;2023-04-01T10:02:03;6.40;99.90
6954;DHT22;3516;47.980;8.808;2023-04-01T10:11:09;6.50;99.90
6954;DHT22;3516;47.980;8.808;2023-04-01T10:20:19;6.40;99.90
6954;DHT22;3516;47.980;8.808;2023-04-01T10:23:10;6.70;99.90
6954;DHT22;3516;47.980;8.808;2023-04-01T10:29:09;6.90;99.90
6954;DHT22;3516;47.980;8.808;2023-04-01T10:38:29;6.80;99.90
6954;DHT22;3516;47.980;8.808;2023-04-01T10:44:49;6.70;99.90
6954;DHT22;3516;47.980;8.808;2023-04-01T10:47:45;6.60;99.90
6954;DHT22;3516;47.980;8.808;2023-04-01T10:50:34;6.80;99.90
6954;DHT22;3516;47.980;8.808;2023-04-01T10:53:33;6.80;99.90
6954;DHT22;3516;47.980;8.808;2023-04-01T10:56:34;6.80;99.90
6954;DHT22;3516;47.980;8.808;2023-04-01T10:59:42;6.70;99.90
6954;DHT22;3516;47.980;8.808;2023-04-01T11:05:48;6.80;99.90
6954;DHT22;3516;47.980;8.808;2023-04-01T11:08:52;6.70;99.90
6954;DHT22;3516;47.980;8.808;2023-04-01T11:11:53;6.60;99.90
6954;DHT22;3516;47.980;8.808;2023-04-01T11:21:08;6.90;99.90
6954;DHT22;3516;47.980;8.808;2023-04-01T11:23:53;7.00;99.90
6954;DHT22;3516;47.980;8.808;2023-04-01T11:26:30;6.80;99.90
6954;DHT22;3516;47.980;8.808;2023-04-01T11:29:21;6.90;99.90
6954;DHT22;3516;47.980;8.808;2023-04-01T11:32:01;6.90;99.90
6954;DHT22;3516;47.980;8.808;2023-04-01T11:35:00;6.90;99.90
6954;DHT22;3516;47.980;8.808;2023-04-01T11:37:38;7.00;99.90
6954;DHT22;3516;47.980;8.808;2023-04-01T11:40:17;7.20;99.90
6954;DHT22;3516;47.980;8.808;2023-04-01T11:42:55;7.50;99.90
6954;DHT22;3516;47.980;8.808;2023-04-01T11:45:35;7.60;99.90
6954;DHT22;3516;47.980;8.808;2023-04-01T11:48:27;7.70;99.90
6954;DHT22;3516;47.980;8.808;2023-04-01T11:51:10;7.80;99.90
6954;DHT22;3516;47.980;8.808;2023-04-01T11:53:47;8.00;99.90
6954;DHT22;3516;47.980;8.808;2023-04-01T11:56:32;8.30;99.90
6954;DHT22;3516;47.980;8.808;2023-04-01T12:02:05;8.40;99.90
6954;DHT22;3516;47.980;8.808;2023-04-01T12:04:42;8.20;99.90
6954;DHT22;3516;47.980;8.808;2023-04-01T12:07:21;8.10;99.90
6954;DHT22;3516;47.980;8.808;2023-04-01T12:09:56;7.90;99.90
6954;DHT22;3516;47.980;8.808;2023-04-01T12:12:32;7.90;99.90
6954;DHT22;3516;47.980;8.808;2023-04-01T12:15:15;7.90;99.90
6954;DHT22;3516;47.980;8.808;2023-04-01T12:17:48;7.90;99.90
6954;DHT22;3516;47.980;8.808;2023-04-01T12:20:36;7.90;99.90
6954;DHT22;3516;47.980;8.808;2023-04-01T12:23:15;7.80;99.90
6954;DHT22;3516;47.980;8.808;2023-04-01T12:26:05;7.70;99.90
6954;DHT22;3516;47.980;8.808;2023-04-01T12:28:44;7.70;99.90
6954;DHT22;3516;47.980;8.808;2023-04-01T12:31:30;7.70;99.90
6954;DHT22;3516;47.980;8.808;2023-04-01T12:34:37;7.70;99.90
6954;DHT22;3516;47.980;8.808;2023-04-01T12:37:12;7.70;99.90
6954;DHT22;3516;47.980;8.808;2023-04-01T12:39:56;7.70;99.90
6954;DHT22;3516;47.980;8.808;2023-04-01T12:42:40;7.70;99.90
6954;DHT22;3516;47.980;8.808;2023-04-01T12:45:35;7.60;99.90
6954;DHT22;3516;47.980;8.808;2023-04-01T12:48:27;7.70;99.90
6954;DHT22;3516;47.980;8.808;2023-04-01T12:51:16;7.70;99.90
6954;DHT22;3516;47.980;8.808;2023-04-01T12:54:02;7.80;99.90
6954;DHT22;3516;47.980;8.808;2023-04-01T12:56:41;7.70;99.90
6954;DHT22;3516;47.980;8.808;2023-04-01T12:59:35;7.80;99.90
6954;DHT22;3516;47.980;8.808;2023-04-01T13:02:11;8.00;99.90
6954;DHT22;3516;47.980;8.808;2023-04-01T13:04:56;8.00;99.90
6954;DHT22;3516;47.980;8.808;2023-04-01T13:10:38;8.20;99.90
6954;DHT22;3516;47.980;8.808;2023-04-01T13:16:11;8.40;99.90
6954;DHT22;3516;47.980;8.808;2023-04-01T13:18:52;8.50;99.90
6954;DHT22;3516;47.980;8.808;2023-04-01T14:23:33;8.70;99.90
6954;DHT22;3516;47.980;8.808;2023-04-01T14:26:11;10.00;99.90
6954;DHT22;3516;47.980;8.808;2023-04-01T14:28:49;10.00;99.90
6954;DHT22;3516;47.980;8.808;2023-04-01T14:31:36;9.90;99.90
6954;DHT22;3516;47.980;8.808;2023-04-01T14:34:21;10.00;99.90
6954;DHT22;3516;47.980;8.808;2023-04-01T14:37:11;9.90;99.90
6954;DHT22;3516;47.980;8.808;2023-04-01T14:40:22;9.90;99.90
6954;DHT22;3516;47.980;8.808;2023-04-01T14:45:58;9.80;99.90
6954;DHT22;3516;47.980;8.808;2023-04-01T14:48:30;9.80;99.90
6954;DHT22;3516;47.980;8.808;2023-04-01T14:51:04;9.70;99.90
6954;DHT22;3516;47.980;8.808;2023-04-01T14:53:39;9.70;99.90
6954;DHT22;3516;47.980;8.808;2023-04-01T14:56:10;9.70;99.90
6954;DHT22;3516;47.980;8.808;2023-04-01T14:58:43;9.70;99.90
6954;DHT22;3516;47.980;8.808;2023-04-01T15:01:25;9.70;99.90
6954;DHT22;3516;47.980;8.808;2023-04-01T15:04:06;9.80;99.90
6954;DHT22;3516;47.980;8.808;2023-04-01T15:07:08;9.80;99.90
6954;DHT22;3516;47.980;8.808;2023-04-01T15:09:45;9.80;99.90
6954;DHT22;3516;47.980;8.808;2023-04-01T15:12:23;9.80;99.90
6954;DHT22;3516;47.980;8.808;2023-04-01T15:15:14;9.80;99.90
6954;DHT22;3516;47.980;8.808;2023-04-01T15:17:55;9.70;99.90
6954;DHT22;3516;47.980;8.808;2023-04-01T15:20:33;9.70;99.90
6954;DHT22;3516;47.980;8.808;2023-04-01T15:23:18;9.70;99.90
6954;DHT22;3516;47.980;8.808;2023-04-01T15:26:11;9.70;99.90
6954;DHT22;3516;47.980;8.808;2023-04-01T15:28:45;9.70;99.90
6954;DHT22;3516;47.980;8.808;2023-04-01T15:31:16;9.70;99.90
6954;DHT22;3516;47.980;8.808;2023-04-01T15:33:53;9.70;99.90
6954;DHT22;3516;47.980;8.808;2023-04-01T15:36:30;9.80;99.90
6954;DHT22;3516;47.980;8.808;2023-04-01T15:39:09;9.90;99.90
6954;DHT22;3516;47.980;8.808;2023-04-01T15:41:46;9.90;99.90
6954;DHT22;3516;47.980;8.808;2023-04-01T15:44:41;9.70;99.90
6954;DHT22;3516;47.980;8.808;2023-04-01T15:47:36;9.60;99.90
6954;DHT22;3516;47.980;8.808;2023-04-01T15:50:24;9.30;99.90
6954;DHT22;3516;47.980;8.808;2023-04-01T15:53:03;8.80;99.90
6954;DHT22;3516;47.980;8.808;2023-04-01T15:55:39;8.50;99.90
6954;DHT22;3516;47.980;8.808;2023-04-01T15:58:37;8.20;99.90
6954;DHT22;3516;47.980;8.808;2023-04-01T16:01:16;8.00;99.90
6954;DHT22;3516;47.980;8.808;2023-04-01T16:03:51;7.90;99.90
6954;DHT22;3516;47.980;8.808;2023-04-01T16:06:41;7.80;99.90
6954;DHT22;3516;47.980;8.808;2023-04-01T16:09:42;7.80;99.90
6954;DHT22;3516;47.980;8.808;2023-04-01T16:12:16;7.70;99.90
6954;DHT22;3516;47.980;8.808;2023-04-01T16:14:56;7.70;99.90
6954;DHT22;3516;47.980;8.808;2023-04-01T16:17:31;7.70;99.90
6954;DHT22;3516;47.980;8.808;2023-04-01T16:20:14;7.60;99.90
6954;DHT22;3516;47.980;8.808;2023-04-01T16:22:49;7.60;99.90
6954;DHT22;3516;47.980;8.808;2023-04-01T16:25:26;7.50;99.90
6954;DHT22;3516;47.980;8.808;2023-04-01T16:28:04;7.50;99.90
6954;DHT22;3516;47.980;8.808;2023-04-01T16:30:38;7.50;99.90
6954;DHT22;3516;47.980;8.808;2023-04-01T16:33:14;7.40;99.90
6954;DHT22;3516;47.980;8.808;2023-04-01T16:35:45;7.40;99.90
6954;DHT22;3516;47.980;8.808;2023-04-01T16:38:20;7.30;99.90
6954;DHT22;3516;47.980;8.808;2023-04-01T16:40:58;7.30;99.90
6954;DHT22;3516;47.980;8.808;2023-04-01T16:43:30;7.30;99.90
6954;DHT22;3516;47.980;8.808;2023-04-01T16:46:33;7.30;99.90
6954;DHT22;3516;47.980;8.808;2023-04-01T16:49:16;7.30;99.90
6954;DHT22;3516;47.980;8.808;2023-04-01T16:51:46;7.30;99.90
6954;DHT22;3516;47.980;8.808;2023-04-01T16:54:18;7.40;99.90
6954;DHT22;3516;47.980;8.808;2023-04-01T16:56:55;7.40;99.90
6954;DHT22;3516;47.980;8.808;2023-04-01T16:59:26;7.30;99.90
6954;DHT22;3516;47.980;8.808;2023-04-01T17:01:57;7.30;99.90
6954;DHT22;3516;47.980;8.808;2023-04-01T17:04:32;7.20;99.90
6954;DHT22;3516;47.980;8.808;2023-04-01T17:07:10;7.20;99.90
6954;DHT22;3516;47.980;8.808;2023-04-01T17:09:55;7.20;99.90
6954;DHT22;3516;47.980;8.808;2023-04-01T17:12:27;7.20;99.90
6954;DHT22;3516;47.980;8.808;2023-04-01T17:15:01;7.10;99.90
6954;DHT22;3516;47.980;8.808;2023-04-01T17:17:37;7.10;99.90
6954;DHT22;3516;47.980;8.808;2023-04-01T17:23:01;7.10;99.90
6954;DHT22;3516;47.980;8.808;2023-04-01T17:28:31;7.10;99.90
6954;DHT22;3516;47.980;8.808;2023-04-01T17:31:07;7.10;99.90
6954;DHT22;3516;47.980;8.808;2023-04-01T17:33:50;7.00;99.90
6954;DHT22;3516;47.980;8.808;2023-04-01T17:36:41;7.00;99.90
6954;DHT22;3516;47.980;8.808;2023-04-01T17:39:35;6.90;99.90
6954;DHT22;3516;47.980;8.808;2023-04-01T17:42:06;6.80;99.90
6954;DHT22;3516;47.980;8.808;2023-04-01T17:44:45;6.70;99.90
6954;DHT22;3516;47.980;8.808;2023-04-01T17:50:22;6.50;99.90
6954;DHT22;3516;47.980;8.808;2023-04-01T17:52:59;6.40;99.90
6954;DHT22;3516;47.980;8.808;2023-04-01T17:55:44;6.40;99.90
6954;DHT22;3516;47.980;8.808;2023-04-01T17:58:18;6.40;99.90
6954;DHT22;3516;47.980;8.808;2023-04-01T18:01:03;6.40;99.90
6954;DHT22;3516;47.980;8.808;2023-04-01T18:06:37;6.30;99.90
6954;DHT22;3516;47.980;8.808;2023-04-01T18:09:19;6.30;99.90
6954;DHT22;3516;47.980;8.808;2023-04-01T18:11:58;6.20;99.90
6954;DHT22;3516;47.980;8.808;2023-04-01T18:17:24;6.10;99.90
6954;DHT22;3516;47.980;8.808;2023-04-01T18:20:16;6.00;99.90
6954;DHT22;3516;47.980;8.808;2023-04-01T18:22:47;6.00;99.90
6954;DHT22;3516;47.980;8.808;2023-04-01T18:25:21;5.90;99.90
6954;DHT22;3516;47.980;8.808;2023-04-01T18:27:53;5.80;99.90
6954;DHT22;3516;47.980;8.808;2023-04-01T18:30:26;5.80;99.90
6954;DHT22;3516;47.980;8.808;2023-04-01T18:32:59;5.70;99.90
6954;DHT22;3516;47.980;8.808;2023-04-01T18:35:34;5.60;99.90
6954;DHT22;3516;47.980;8.808;2023-04-01T18:38:13;5.60;99.90
6954;DHT22;3516;47.980;8.808;2023-04-01T18:40:45;5.60;99.90
6954;DHT22;3516;47.980;8.808;2023-04-01T18:43:21;5.50;99.90
6954;DHT22;3516;47.980;8.808;2023-04-01T18:45:53;5.50;99.90
6954;DHT22;3516;47.980;8.808;2023-04-01T18:48:38;5.40;99.90
6954;DHT22;3516;47.980;8.808;2023-04-01T18:51:12;5.40;99.90
6954;DHT22;3516;47.980;8.808;2023-04-01T18:53:47;5.40;99.90
6954;DHT22;3516;47.980;8.808;2023-04-01T18:56:24;5.30;99.90
6954;DHT22;3516;47.980;8.808;2023-04-01T18:58:58;5.20;99.90
6954;DHT22;3516;47.980;8.808;2023-04-01T19:01:31;5.20;99.90
6954;DHT22;3516;47.980;8.808;2023-04-01T19:04:09;5.20;99.90
6954;DHT22;3516;47.980;8.808;2023-04-01T19:06:43;5.10;99.90
6954;DHT22;3516;47.980;8.808;2023-04-01T19:09:20;5.10;99.90
6954;DHT22;3516;47.980;8.808;2023-04-01T19:11:57;5.00;99.90
6954;DHT22;3516;47.980;8.808;2023-04-01T19:14:34;4.90;99.90
6954;DHT22;3516;47.980;8.808;2023-04-01T19:17:14;4.90;99.90
6954;DHT22;3516;47.980;8.808;2023-04-01T19:19:50;4.90;99.90
6954;DHT22;3516;47.980;8.808;2023-04-01T19:22:27;4.80;99.90
6954;DHT22;3516;47.980;8.808;2023-04-01T19:25:25;4.70;99.90
6954;DHT22;3516;47.980;8.808;2023-04-01T19:27:55;4.60;99.90
6954;DHT22;3516;47.980;8.808;2023-04-01T19:30:36;4.60;99.90
6954;DHT22;3516;47.980;8.808;2023-04-01T19:33:18;4.50;99.90
6954;DHT22;3516;47.980;8.808;2023-04-01T19:35:49;4.50;99.90
6954;DHT22;3516;47.980;8.808;2023-04-01T19:38:26;4.40;99.90
6954;DHT22;3516;47.980;8.808;2023-04-01T19:41:00;4.40;99.90
6954;DHT22;3516;47.980;8.808;2023-04-01T19:43:52;4.30;99.90
6954;DHT22;3516;47.980;8.808;2023-04-01T19:46:28;4.30;99.90
6954;DHT22;3516;47.980;8.808;2023-04-01T19:49:09;4.30;99.90
6954;DHT22;3516;47.980;8.808;2023-04-01T19:51:46;4.20;99.90
6954;DHT22;3516;47.980;8.808;2023-04-01T19:54:25;4.10;99.90
6954;DHT22;3516;47.980;8.808;2023-04-01T19:57:00;4.10;99.90
6954;DHT22;3516;47.980;8.808;2023-04-01T19:59:34;4.00;99.90
6954;DHT22;3516;47.980;8.808;2023-04-01T20:02:25;4.00;99.90
6954;DHT22;3516;47.980;8.808;2023-04-01T20:04:54;4.00;99.90
6954;DHT22;3516;47.980;8.808;2023-04-01T20:07:25;3.90;99.90
6954;DHT22;3516;47.980;8.808;2023-04-01T20:10:00;3.90;99.90
6954;DHT22;3516;47.980;8.808;2023-04-01T20:12:41;3.90;99.90
6954;DHT22;3516;47.980;8.808;2023-04-01T20:15:22;3.80;99.90
6954;DHT22;3516;47.980;8.808;2023-04-01T20:17:55;3.80;99.90
6954;DHT22;3516;47.980;8.808;2023-04-01T20:20:25;3.80;99.90
6954;DHT22;3516;47.980;8.808;2023-04-01T20:23:07;3.70;99.90
6954;DHT22;3516;47.980;8.808;2023-04-01T20:25:47;3.70;99.90
6954;DHT22;3516;47.980;8.808;2023-04-01T20:28:25;3.70;99.90
6954;DHT22;3516;47.980;8.808;2023-04-01T20:34:09;3.60;99.90
6954;DHT22;3516;47.980;8.808;2023-04-01T20:36:46;3.50;99.90
6954;DHT22;3516;47.980;8.808;2023-04-01T20:39:31;3.50;99.90
6954;DHT22;3516;47.980;8.808;2023-04-01T20:42:26;3.50;99.90
6954;DHT22;3516;47.980;8.808;2023-04-01T20:45:07;3.50;99.90
6954;DHT22;3516;47.980;8.808;2023-04-01T20:47:51;3.40;99.90
6954;DHT22;3516;47.980;8.808;2023-04-01T20:50:24;3.40;99.90
6954;DHT22;3516;47.980;8.808;2023-04-01T20:52:57;3.40;99.90
6954;DHT22;3516;47.980;8.808;2023-04-01T20:58:25;3.40;99.90
6954;DHT22;3516;47.980;8.808;2023-04-01T21:01:03;3.40;99.90
6954;DHT22;3516;47.980;8.808;2023-04-01T21:03:42;3.40;99.90
6954;DHT22;3516;47.980;8.808;2023-04-01T21:06:30;3.40;99.90
6954;DHT22;3516;47.980;8.808;2023-04-01T21:09:11;3.40;99.90
6954;DHT22;3516;47.980;8.808;2023-04-01T21:11:50;3.40;99.90
6954;DHT22;3516;47.980;8.808;2023-04-01T21:14:49;3.40;99.90
6954;DHT22;3516;47.980;8.808;2023-04-01T21:17:33;3.40;99.90
6954;DHT22;3516;47.980;8.808;2023-04-01T21:20:14;3.40;99.90
6954;DHT22;3516;47.980;8.808;2023-04-01T21:22:57;3.40;99.90
6954;DHT22;3516;47.980;8.808;2023-04-01T21:25:28;3.40;99.90
6954;DHT22;3516;47.980;8.808;2023-04-01T21:28:10;3.30;99.90
6954;DHT22;3516;47.980;8.808;2023-04-01T21:30:49;3.30;99.90
6954;DHT22;3516;47.980;8.808;2023-04-01T21:33:42;3.30;99.90
6954;DHT22;3516;47.980;8.808;2023-04-01T21:36:21;3.40;99.90
6954;DHT22;3516;47.980;8.808;2023-04-01T21:39:01;3.40;99.90
6954;DHT22;3516;47.980;8.808;2023-04-01T21:41:47;3.40;99.90
6954;DHT22;3516;47.980;8.808;2023-04-01T21:44:40;3.40;99.90
6954;DHT22;3516;47.980;8.808;2023-04-01T21:50:48;3.40;99.90
6954;DHT22;3516;47.980;8.808;2023-04-01T21:53:36;3.40;99.90
6954;DHT22;3516;47.980;8.808;2023-04-01T21:59:47;3.30;99.90
6954;DHT22;3516;47.980;8.808;2023-04-01T22:05:14;3.20;99.90
6954;DHT22;3516;47.980;8.808;2023-04-01T22:07:46;3.20;99.90
6954;DHT22;3516;47.980;8.808;2023-04-01T22:10:21;3.20;99.90
6954;DHT22;3516;47.980;8.808;2023-04-01T22:12:55;3.20;99.90
6954;DHT22;3516;47.980;8.808;2023-04-01T22:15:29;3.20;99.90
6954;DHT22;3516;47.980;8.808;2023-04-01T22:18:01;3.10;99.90
6954;DHT22;3516;47.980;8.808;2023-04-01T22:20:35;3.10;99.90
6954;DHT22;3516;47.980;8.808;2023-04-01T22:23:15;3.10;99.90
6954;DHT22;3516;47.980;8.808;2023-04-01T22:25:49;3.10;99.90
6954;DHT22;3516;47.980;8.808;2023-04-01T22:28:24;3.10;99.90
6954;DHT22;3516;47.980;8.808;2023-04-01T22:30:58;3.10;99.90
6954;DHT22;3516;47.980;8.808;2023-04-01T22:33:32;3.10;99.90
6954;DHT22;3516;47.980;8.808;2023-04-01T22:36:06;3.20;99.90
6954;DHT22;3516;47.980;8.808;2023-04-01T22:38:48;3.20;99.90
6954;DHT22;3516;47.980;8.808;2023-04-01T22:41:28;3.30;99.90
6954;DHT22;3516;47.980;8.808;2023-04-01T22:43:58;3.20;99.90
6954;DHT22;3516;47.980;8.808;2023-04-01T22:46:46;3.30;99.90
6954;DHT22;3516;47.980;8.808;2023-04-01T22:49:18;3.40;99.90
6954;DHT22;3516;47.980;8.808;2023-04-01T22:51:50;3.30;99.90
6954;DHT22;3516;47.980;8.808;2023-04-01T22:54:23;3.40;99.90
6954;DHT22;3516;47.980;8.808;2023-04-01T22:56:55;3.40;99.90
6954;DHT22;3516;47.980;8.808;2023-04-01T22:59:27;3.40;99.90
6954;DHT22;3516;47.980;8.808;2023-04-01T23:02:01;3.50;99.90
6954;DHT22;3516;47.980;8.808;2023-04-01T23:04:35;3.60;99.90
6954;DHT22;3516;47.980;8.808;2023-04-01T23:07:19;3.60;99.90
6954;DHT22;3516;47.980;8.808;2023-04-01T23:09:50;3.70;99.90
6954;DHT22;3516;47.980;8.808;2023-04-01T23:12:19;3.70;99.90
6954;DHT22;3516;47.980;8.808;2023-04-01T23:14:49;3.80;99.90
6954;DHT22;3516;47.980;8.808;2023-04-01T23:17:25;3.80;99.90
6954;DHT22;3516;47.980;8.808;2023-04-01T23:20:00;3.80;99.90
6954;DHT22;3516;47.980;8.808;2023-04-01T23:22:36;3.80;99.90
6954;DHT22;3516;47.980;8.808;2023-04-01T23:25:18;3.70;99.90
6954;DHT22;3516;47.980;8.808;2023-04-01T23:27:54;3.60;99.90
6954;DHT22;3516;47.980;8.808;2023-04-01T23:30:47;3.50;99.90
6954;DHT22;3516;47.980;8.808;2023-04-01T23:33:21;3.50;99.90
6954;DHT22;3516;47.980;8.808;2023-04-01T23:35:50;3.50;99.90
6954;DHT22;3516;47.980;8.808;2023-04-01T23:38:18;3.40;99.90
6954;DHT22;3516;47.980;8.808;2023-04-01T23:40:49;3.50;99.90
6954;DHT22;3516;47.980;8.808;2023-04-01T23:43:22;3.50;99.90
6954;DHT22;3516;47.980;8.808;2023-04-01T23:45:51;3.50;99.90
6954;DHT22;3516;47.980;8.808;2023-04-01T23:48:21;3.60;99.90
6954;DHT22;3516;47.980;8.808;2023-04-01T23:50:50;3.50;99.90
6954;DHT22;3516;47.980;8.808;2023-04-01T23:53:19;3.40;99.90
6954;DHT22;3516;47.980;8.808;2023-04-01T23:55:48;3.30;99.90
6954;DHT22;3516;47.980;8.808;2023-04-01T23:58:21;3.30;99.90
